Time,TemperatureF,DewpointF,PressureIn,WindDirection,WindDirectionDegrees,WindSpeedMPH,WindSpeedGustMPH,Humidity,HourlyPrecipIn,Conditions,Clouds,dailyrainin,SoftwareType,DateUTC
2013-08-13 00:11:00,58.1,57.0,29.91,SSW,195,0.0,0.0,97,0.00,,,0.00,weatherlink.com 1.10,2013-08-13 04:11:00,
2013-08-13 00:27:00,59.3,59.0,29.91,SSW,194,0.0,0.0,97,0.00,,,0.00,weatherlink.com 1.10,2013-08-13 04:27:00,
2013-08-13 00:42:00,60.3,60.0,29.90,WSW,250,0.0,0.0,98,0.00,,,0.00,weatherlink.com 1.10,2013-08-13 04:42:00,
2013-08-13 00:57:00,61.0,61.0,29.89,West,278,0.0,2.0,98,0.00,,,0.00,weatherlink.com 1.10,2013-08-13 04:57:00,
2013-08-13 01:12:00,61.4,61.0,29.89,West,278,0.0,0.0,97,0.00,,,0.00,weatherlink.com 1.10,2013-08-13 05:12:00,
2013-08-13 01:27:00,61.8,61.0,29.88,ENE,75,0.0,0.0,96,0.00,,,0.00,weatherlink.com 1.10,2013-08-13 05:27:00,
2013-08-13 01:42:00,61.6,61.0,29.88,ENE,75,0.0,0.0,96,0.00,,,0.00,weatherlink.com 1.10,2013-08-13 05:42:00,
2013-08-13 01:57:00,61.1,60.0,29.88,ENE,75,0.0,0.0,96,0.00,,,0.00,weatherlink.com 1.10,2013-08-13 05:57:00,
2013-08-13 02:12:00,60.8,60.0,29.87,ENE,75,0.0,0.0,96,0.00,,,0.00,weatherlink.com 1.10,2013-08-13 06:12:00,
2013-08-13 02:27:00,60.8,60.0,29.87,ENE,75,0.0,0.0,96,0.00,,,0.00,weatherlink.com 1.10,2013-08-13 06:27:00,
2013-08-13 02:42:00,60.9,60.0,29.86,ENE,75,0.0,0.0,96,0.00,,,0.00,weatherlink.com 1.10,2013-08-13 06:42:00,
2013-08-13 02:57:00,60.6,60.0,29.86,ENE,75,0.0,0.0,96,0.00,,,0.00,weatherlink.com 1.10,2013-08-13 06:57:00,
2013-08-13 03:12:00,61.0,60.0,29.86,ENE,76,0.0,0.0,97,0.00,,,0.00,weatherlink.com 1.10,2013-08-13 07:12:00,
2013-08-13 03:27:00,62.4,61.0,29.85,West,270,0.0,1.0,95,0.00,,,0.00,weatherlink.com 1.10,2013-08-13 07:27:00,
2013-08-13 03:42:00,62.1,60.0,29.84,West,270,0.0,0.0,94,0.00,,,0.00,weatherlink.com 1.10,2013-08-13 07:42:00,
2013-08-13 03:57:00,62.4,61.0,29.84,South,176,0.0,1.0,94,0.00,,,0.00,weatherlink.com 1.10,2013-08-13 07:57:00,
2013-08-13 04:12:00,61.4,60.0,29.84,South,176,0.0,0.0,94,0.00,,,0.00,weatherlink.com 1.10,2013-08-13 08:12:00,
2013-08-13 04:27:00,60.8,59.0,29.84,South,176,0.0,0.0,95,0.00,,,0.00,weatherlink.com 1.10,2013-08-13 08:27:00,
2013-08-13 04:42:00,60.3,59.0,29.83,South,176,0.0,0.0,96,0.00,,,0.00,weatherlink.com 1.10,2013-08-13 08:42:00,
2013-08-13 04:57:00,60.3,60.0,29.83,South,176,0.0,0.0,97,0.00,,,0.00,weatherlink.com 1.10,2013-08-13 08:57:00,
2013-08-13 05:12:00,60.1,59.0,29.82,South,176,0.0,0.0,97,0.00,,,0.00,weatherlink.com 1.10,2013-08-13 09:12:00,
2013-08-13 05:27:00,60.8,60.0,29.82,ENE,73,0.0,1.0,97,0.00,,,0.00,weatherlink.com 1.10,2013-08-13 09:27:00,
2013-08-13 05:42:00,61.7,60.0,29.82,ESE,122,0.0,1.0,95,0.00,,,0.00,weatherlink.com 1.10,2013-08-13 09:42:00,
2013-08-13 05:57:00,61.5,60.0,29.82,ESE,121,0.0,1.0,94,0.00,,,0.00,weatherlink.com 1.10,2013-08-13 09:57:00,
2013-08-13 06:12:00,60.8,59.0,29.82,ESE,122,0.0,0.0,95,0.00,,,0.00,weatherlink.com 1.10,2013-08-13 10:12:00,
2013-08-13 06:27:00,60.7,60.0,29.82,ESE,121,0.0,0.0,96,0.00,,,0.00,weatherlink.com 1.10,2013-08-13 10:27:00,
2013-08-13 06:42:00,61.2,60.0,29.82,ESE,114,0.0,1.0,96,0.00,,,0.00,weatherlink.com 1.10,2013-08-13 10:42:00,
2013-08-13 06:57:00,62.1,61.0,29.82,ENE,78,0.0,0.0,96,0.00,,,0.00,weatherlink.com 1.10,2013-08-13 10:57:00,
2013-08-13 07:12:00,62.3,61.0,29.82,ENE,78,0.0,0.0,95,0.00,,,0.00,weatherlink.com 1.10,2013-08-13 11:12:00,
2013-08-13 07:27:00,62.7,61.0,29.82,ENE,75,0.0,0.0,95,0.00,,,0.00,weatherlink.com 1.10,2013-08-13 11:27:00,
2013-08-13 07:42:00,63.4,62.0,29.81,WSW,242,0.0,0.0,95,0.00,,,0.00,weatherlink.com 1.10,2013-08-13 11:42:00,
2013-08-13 07:57:00,64.0,63.0,29.81,WSW,240,0.0,0.0,95,0.00,,,0.00,weatherlink.com 1.10,2013-08-13 11:57:00,
2013-08-13 08:12:00,64.6,63.0,29.80,WSW,240,0.0,0.0,95,0.00,,,0.00,weatherlink.com 1.10,2013-08-13 12:12:00,
2013-08-13 08:27:00,65.6,64.0,29.80,ESE,120,0.0,2.0,95,0.00,,,0.00,weatherlink.com 1.10,2013-08-13 12:27:00,
2013-08-13 08:43:00,67.1,65.0,29.79,WSW,240,0.0,4.0,93,0.00,,,0.00,weatherlink.com 1.10,2013-08-13 12:43:00,
2013-08-13 08:58:00,68.0,65.0,29.79,ENE,77,1.0,3.0,91,0.00,,,0.00,weatherlink.com 1.10,2013-08-13 12:58:00,
2013-08-13 09:13:00,68.6,66.0,29.78,NW,321,0.0,0.0,90,0.00,,,0.00,weatherlink.com 1.10,2013-08-13 13:13:00,
2013-08-13 09:28:00,68.7,65.0,29.78,SE,133,1.0,4.0,89,0.00,,,0.00,weatherlink.com 1.10,2013-08-13 13:28:00,
2013-08-13 09:43:00,68.8,65.0,29.79,SSW,210,0.0,3.0,88,0.00,,,0.00,weatherlink.com 1.10,2013-08-13 13:43:00,
2013-08-13 09:58:00,68.8,65.0,29.79,East,80,1.0,2.0,87,0.00,,,0.00,weatherlink.com 1.10,2013-08-13 13:58:00,
2013-08-13 10:13:00,68.6,65.0,29.80,ENE,70,1.0,3.0,88,0.00,,,0.00,weatherlink.com 1.10,2013-08-13 14:13:00,
2013-08-13 10:28:00,68.0,65.0,29.80,ENE,74,2.0,3.0,90,0.00,,,0.00,weatherlink.com 1.10,2013-08-13 14:28:00,
2013-08-13 10:43:00,67.3,65.0,29.80,NNW,333,0.0,2.0,92,0.02,,,0.02,weatherlink.com 1.10,2013-08-13 14:43:00,
2013-08-13 10:58:00,66.9,65.0,29.80,East,87,0.0,6.0,93,0.03,,,0.03,weatherlink.com 1.10,2013-08-13 14:58:00,
2013-08-13 11:13:00,66.6,65.0,29.80,NE,41,1.0,3.0,93,0.05,,,0.05,weatherlink.com 1.10,2013-08-13 15:13:00,
2013-08-13 11:28:00,66.6,65.0,29.80,ESE,108,2.0,4.0,93,0.06,,,0.06,weatherlink.com 1.10,2013-08-13 15:28:00,
2013-08-13 11:43:00,67.1,65.0,29.79,SSW,205,0.0,2.0,93,0.05,,,0.07,weatherlink.com 1.10,2013-08-13 15:43:00,
2013-08-13 11:58:00,67.4,65.0,29.79,West,278,1.0,3.0,93,0.04,,,0.07,weatherlink.com 1.10,2013-08-13 15:58:00,
2013-08-13 12:13:00,68.0,66.0,29.78,SW,228,1.0,2.0,92,0.02,,,0.07,weatherlink.com 1.10,2013-08-13 16:13:00,
2013-08-13 12:28:00,68.6,66.0,29.77,ENE,60,2.0,3.0,92,0.01,,,0.07,weatherlink.com 1.10,2013-08-13 16:28:00,
2013-08-13 12:43:00,68.3,66.0,29.78,East,96,1.0,4.0,92,0.00,,,0.07,weatherlink.com 1.10,2013-08-13 16:43:00,
2013-08-13 12:58:00,68.1,66.0,29.77,ENE,72,0.0,3.0,93,0.00,,,0.07,weatherlink.com 1.10,2013-08-13 16:58:00,
2013-08-13 13:13:00,67.8,66.0,29.76,SE,127,1.0,3.0,93,0.00,,,0.07,weatherlink.com 1.10,2013-08-13 17:13:00,
2013-08-13 13:28:00,67.5,66.0,29.76,East,81,0.0,2.0,94,0.01,,,0.08,weatherlink.com 1.10,2013-08-13 17:28:00,
2013-08-13 13:43:00,67.4,66.0,29.75,East,96,0.0,2.0,94,0.01,,,0.08,weatherlink.com 1.10,2013-08-13 17:43:00,
2013-08-13 13:58:00,67.7,66.0,29.75,ENE,69,0.0,3.0,94,0.02,,,0.09,weatherlink.com 1.10,2013-08-13 17:58:00,
2013-08-13 14:13:00,68.1,67.0,29.74,ENE,69,0.0,1.0,95,0.02,,,0.09,weatherlink.com 1.10,2013-08-13 18:13:00,
2013-08-13 14:28:00,68.8,67.0,29.73,ENE,67,2.0,5.0,93,0.01,,,0.09,weatherlink.com 1.10,2013-08-13 18:28:00,
2013-08-13 14:43:00,69.5,68.0,29.72,ENE,68,4.0,5.0,94,0.01,,,0.09,weatherlink.com 1.10,2013-08-13 18:43:00,
2013-08-13 14:58:00,69.7,66.0,29.72,ESE,122,0.0,5.0,89,0.00,,,0.09,weatherlink.com 1.10,2013-08-13 18:58:00,
2013-08-13 15:13:00,69.4,67.0,29.71,ENE,66,3.0,3.0,91,0.00,,,0.09,weatherlink.com 1.10,2013-08-13 19:13:00,
2013-08-13 15:28:00,68.4,66.0,29.71,ESE,117,1.0,3.0,92,0.00,,,0.09,weatherlink.com 1.10,2013-08-13 19:28:00,
2013-08-13 15:43:00,68.1,66.0,29.71,East,91,1.0,3.0,93,0.00,,,0.09,weatherlink.com 1.10,2013-08-13 19:43:00,
2013-08-13 15:58:00,68.2,67.0,29.71,East,94,0.0,1.0,94,0.00,,,0.09,weatherlink.com 1.10,2013-08-13 19:58:00,
2013-08-13 16:13:00,68.4,66.0,29.71,ENE,71,0.0,1.0,92,0.00,,,0.09,weatherlink.com 1.10,2013-08-13 20:13:00,
2013-08-13 16:28:00,68.6,66.0,29.70,SE,135,0.0,1.0,91,0.00,,,0.09,weatherlink.com 1.10,2013-08-13 20:28:00,
2013-08-13 16:43:00,69.3,66.0,29.70,SSE,160,0.0,3.0,90,0.00,,,0.09,weatherlink.com 1.10,2013-08-13 20:43:00,
2013-08-13 16:58:00,69.9,66.0,29.69,East,83,0.0,3.0,87,0.00,,,0.09,weatherlink.com 1.10,2013-08-13 20:58:00,
2013-08-13 17:13:00,70.8,67.0,29.69,SE,141,1.0,2.0,88,0.00,,,0.09,weatherlink.com 1.10,2013-08-13 21:13:00,
2013-08-13 17:29:00,71.1,67.0,29.69,West,271,0.0,2.0,87,0.00,,,0.09,weatherlink.com 1.10,2013-08-13 21:29:00,
2013-08-13 17:44:00,71.5,67.0,29.68,SW,226,1.0,3.0,86,0.00,,,0.09,weatherlink.com 1.10,2013-08-13 21:44:00,
2013-08-13 17:59:00,70.5,67.0,29.68,SSE,154,0.0,2.0,89,0.00,,,0.09,weatherlink.com 1.10,2013-08-13 21:59:00,
2013-08-13 18:14:00,69.4,66.0,29.68,ENE,59,0.0,0.0,90,0.00,,,0.09,weatherlink.com 1.10,2013-08-13 22:14:00,
2013-08-13 18:29:00,68.8,66.0,29.68,East,87,0.0,3.0,91,0.00,,,0.09,weatherlink.com 1.10,2013-08-13 22:29:00,
2013-08-13 18:44:00,68.3,66.0,29.68,ESE,117,0.0,1.0,92,0.00,,,0.09,weatherlink.com 1.10,2013-08-13 22:44:00,
2013-08-13 18:59:00,68.0,66.0,29.68,SE,130,0.0,0.0,92,0.00,,,0.09,weatherlink.com 1.10,2013-08-13 22:59:00,
2013-08-13 19:14:00,67.9,66.0,29.67,ESE,118,0.0,0.0,93,0.00,,,0.09,weatherlink.com 1.10,2013-08-13 23:14:00,
2013-08-13 19:29:00,67.5,66.0,29.67,East,95,0.0,1.0,93,0.00,,,0.09,weatherlink.com 1.10,2013-08-13 23:29:00,
2013-08-13 19:44:00,66.6,65.0,29.67,East,94,0.0,0.0,94,0.00,,,0.09,weatherlink.com 1.10,2013-08-13 23:44:00,
2013-08-13 19:59:00,65.3,64.0,29.67,East,95,0.0,0.0,95,0.00,,,0.09,weatherlink.com 1.10,2013-08-13 23:59:00,
2013-08-13 20:14:00,64.3,63.0,29.68,East,95,0.0,0.0,96,0.00,,,0.09,weatherlink.com 1.10,2013-08-14 00:14:00,
2013-08-13 20:29:00,63.6,63.0,29.69,East,95,0.0,0.0,96,0.00,,,0.09,weatherlink.com 1.10,2013-08-14 00:29:00,
2013-08-13 20:44:00,63.1,62.0,29.67,East,95,0.0,0.0,96,0.00,,,0.09,weatherlink.com 1.10,2013-08-14 00:44:00,
2013-08-13 20:59:00,63.0,62.0,29.68,East,94,0.0,0.0,97,0.00,,,0.09,weatherlink.com 1.10,2013-08-14 00:59:00,
2013-08-13 21:14:00,62.7,62.0,29.69,East,95,0.0,0.0,97,0.00,,,0.09,weatherlink.com 1.10,2013-08-14 01:14:00,
2013-08-13 21:29:00,62.5,62.0,29.69,East,95,0.0,0.0,97,0.00,,,0.09,weatherlink.com 1.10,2013-08-14 01:29:00,
2013-08-13 21:44:00,62.5,62.0,29.69,East,96,0.0,0.0,97,0.00,,,0.09,weatherlink.com 1.10,2013-08-14 01:44:00,
2013-08-13 21:59:00,62.0,61.0,29.69,East,95,0.0,0.0,97,0.00,,,0.09,weatherlink.com 1.10,2013-08-14 01:59:00,
2013-08-13 22:14:00,62.2,62.0,29.69,East,95,0.0,0.0,98,0.00,,,0.09,weatherlink.com 1.10,2013-08-14 02:14:00,
2013-08-13 22:29:00,62.1,62.0,29.69,East,95,0.0,0.0,98,0.00,,,0.09,weatherlink.com 1.10,2013-08-14 02:29:00,
2013-08-13 22:44:00,62.0,62.0,29.69,East,95,0.0,0.0,98,0.00,,,0.09,weatherlink.com 1.10,2013-08-14 02:44:00,
2013-08-13 22:59:00,61.9,61.0,29.68,East,95,0.0,0.0,98,0.00,,,0.09,weatherlink.com 1.10,2013-08-14 02:59:00,
2013-08-13 23:14:00,62.2,62.0,29.68,East,95,0.0,0.0,98,0.00,,,0.09,weatherlink.com 1.10,2013-08-14 03:14:00,
2013-08-13 23:29:00,61.9,61.0,29.67,East,95,0.0,0.0,98,0.00,,,0.09,weatherlink.com 1.10,2013-08-14 03:29:00,
2013-08-13 23:44:00,61.8,61.0,29.66,East,95,1.0,1.0,98,0.00,,,0.09,weatherlink.com 1.10,2013-08-14 03:44:00,
2013-08-13 23:59:00,62.5,62.0,29.66,SSE,148,0.0,1.0,98,0.00,,,0.09,weatherlink.com 1.10,2013-08-14 03:59:00,